Time;durP1;ratioP1;P1;durP2;ratioP2;P2;SDS_P1;SDS_P2;PMS_P1;PMS_P2;Temp;Humidity;BMP_temperature;BMP_pressure;BME280_temperature;BME280_humidity;BME280_pressure;Samples;Min_cycle;Max_cycle;Signal;HPM_P1;HPM_P2
2024/02/21 00:02:07;;;;;;;4.63;2.60;;;;;;;8.94;96.68;101537.59;5096999;28;20487;-69
2024/02/21 00:04:34;;;;;;;4.10;1.80;;;;;;;8.91;97.56;101535.41;5096391;28;20535;-69
2024/02/21 00:07:01;;;;;;;3.50;1.90;;;;;;;8.93;97.83;101537.84;5096512;28;20448;-69
2024/02/21 00:09:28;;;;;;;3.20;1.30;;;;;;;8.91;98.29;101531.91;5096690;28;20854;-70
2024/02/21 00:11:55;;;;;;;7.87;1.67;;;;;;;8.85;98.57;101525.66;5097192;28;20547;-69
2024/02/21 00:14:23;;;;;;;4.17;1.80;;;;;;;8.81;99.34;101521.91;5096574;28;20471;-69
2024/02/21 00:16:49;;;;;;;4.17;1.50;;;;;;;8.81;99.85;101524.59;5096459;28;20930;-69
2024/02/21 00:19:16;;;;;;;5.07;2.00;;;;;;;8.78;99.54;101528.63;5096755;28;20437;-70
2024/02/21 00:21:42;;;;;;;3.63;1.57;;;;;;;8.76;100.00;101528.06;5096493;28;21003;-70
2024/02/21 00:24:09;;;;;;;5.67;2.07;;;;;;;8.77;99.50;101523.50;5096431;28;20962;-69
2024/02/21 00:26:35;;;;;;;3.93;1.47;;;;;;;8.75;99.79;101515.63;5097085;28;20471;-69
2024/02/21 00:29:02;;;;;;;4.83;2.23;;;;;;;8.78;99.24;101508.91;5096116;28;20468;-71
2024/02/21 00:31:30;;;;;;;3.60;1.33;;;;;;;8.80;99.13;101517.53;5096281;28;20437;-71
2024/02/21 00:33:57;;;;;;;4.90;1.93;;;;;;;8.80;99.05;101512.94;5096508;28;20447;-71
2024/02/21 00:36:24;;;;;;;2.50;1.30;;;;;;;8.79;99.72;101508.63;5095889;28;20975;-70
2024/02/21 00:38:50;;;;;;;2.83;1.20;;;;;;;8.79;99.67;101505.94;5096184;28;20437;-70
2024/02/21 00:41:17;;;;;;;3.90;1.50;;;;;;;8.79;99.36;101505.94;5096165;28;20436;-70
2024/02/21 00:46:14;;;;;;;4.40;1.60;;;;;;;8.82;98.38;101494.59;5074729;28;20477;-71
2024/02/21 00:48:42;;;;;;;2.63;1.43;;;;;;;8.84;97.65;101494.31;5075464;28;21028;-69
2024/02/21 00:51:08;;;;;;;4.03;1.50;;;;;;;8.87;97.22;101495.69;5075383;28;21020;-69
2024/02/21 00:53:38;;;;;;;3.90;1.50;;;;;;;8.86;97.52;101488.69;5076008;28;20519;-69
2024/02/21 00:56:05;;;;;;;2.50;1.30;;;;;;;8.87;96.70;101493.00;5075501;28;20477;-69
2024/02/21 00:58:32;;;;;;;9.23;2.20;;;;;;;8.86;96.89;101486.78;5075269;28;20500;-70
2024/02/21 01:00:58;;;;;;;2.30;1.07;;;;;;;8.87;96.66;101487.59;5075597;28;20516;-69
2024/02/21 01:03:25;;;;;;;2.53;0.93;;;;;;;8.84;97.52;101489.72;5075627;28;20496;-69
2024/02/21 01:05:53;;;;;;;2.70;1.03;;;;;;;8.86;97.88;101483.28;5075237;28;20926;-69
2024/02/21 01:08:19;;;;;;;11.37;2.20;;;;;;;8.84;97.13;101484.31;5075371;28;20859;-69
2024/02/21 01:10:46;;;;;;;3.20;1.43;;;;;;;8.86;96.18;101475.16;5075334;28;20807;-69
2024/02/21 01:13:13;;;;;;;3.57;1.63;;;;;;;8.86;96.84;101485.97;5075127;28;20556;-70
2024/02/21 01:15:39;;;;;;;4.80;1.57;;;;;;;8.92;96.40;101482.19;5075101;28;20477;-69
2024/02/21 01:18:06;;;;;;;7.57;1.60;;;;;;;8.92;95.69;101477.59;5075516;28;20437;-69
2024/02/21 01:20:33;;;;;;;3.37;1.50;;;;;;;8.91;96.25;101484.09;5075453;28;20445;-70
2024/02/21 01:23:01;;;;;;;3.50;1.90;;;;;;;8.92;96.43;101474.91;5074905;28;20548;-70
2024/02/21 01:25:27;;;;;;;2.40;1.07;;;;;;;8.94;96.18;101469.22;5075017;28;20680;-70
2024/02/21 01:27:54;;;;;;;3.53;1.77;;;;;;;8.92;96.37;101468.69;5075212;28;20957;-69
2024/02/21 01:30:20;;;;;;;2.57;1.30;;;;;;;8.91;96.55;101470.56;5074920;28;20484;-70
2024/02/21 01:32:47;;;;;;;3.70;1.40;;;;;;;8.98;96.16;101462.19;5074747;28;20519;-69
2024/02/21 01:35:14;;;;;;;3.90;1.53;;;;;;;8.98;96.11;101463.00;5074762;28;20520;-70
2024/02/21 01:37:40;;;;;;;3.03;1.40;;;;;;;8.97;96.10;101460.59;5074863;28;20484;-70
2024/02/21 01:40:10;;;;;;;3.77;1.30;;;;;;;9.03;95.48;101462.19;5074699;28;20877;-70
2024/02/21 01:42:39;;;;;;;3.60;2.00;;;;;;;9.03;95.14;101467.59;5074531;28;20492;-70
2024/02/21 01:45:06;;;;;;;3.80;1.43;;;;;;;8.99;96.52;101453.84;5074147;28;20445;-69
2024/02/21 01:47:33;;;;;;;11.13;1.57;;;;;;;8.97;97.06;101450.59;5074360;28;20433;-69
2024/02/21 01:50:01;;;;;;;13.53;1.90;;;;;;;9.04;94.95;101450.34;5074473;28;20529;-70
2024/02/21 01:52:29;;;;;;;6.10;1.60;;;;;;;9.06;94.24;101450.84;5074064;28;20469;-70
2024/02/21 01:54:57;;;;;;;4.80;1.17;;;;;;;9.03;94.36;101456.78;5074407;28;20520;-69
2024/02/21 01:57:25;;;;;;;3.00;1.70;;;;;;;9.03;94.93;101448.69;5074257;28;20566;-70
2024/02/21 01:59:53;;;;;;;3.43;1.20;;;;;;;9.02;95.63;101449.78;5074484;28;20466;-70
2024/02/21 02:02:19;;;;;;;1.90;0.70;;;;;;;8.95;96.62;101449.25;5073764;28;20541;-70
2024/02/21 02:04:47;;;;;;;3.20;1.37;;;;;;;8.93;96.96;101443.28;5074344;28;20469;-70
2024/02/21 02:07:13;;;;;;;3.10;1.13;;;;;;;8.88;97.54;101427.88;5074175;28;20948;-70
2024/02/21 02:09:40;;;;;;;4.10;1.23;;;;;;;8.81;98.80;101438.97;5074139;28;20448;-70
2024/02/21 02:12:07;;;;;;;3.70;1.43;;;;;;;8.71;100.00;101433.53;5073955;28;20985;-70
2024/02/21 02:14:35;;;;;;;3.67;1.50;;;;;;;8.66;100.00;101436.22;5073613;28;20438;-70
2024/02/21 02:17:02;;;;;;;4.63;1.37;;;;;;;8.55;100.00;101429.19;5073933;28;20920;-70
2024/02/21 02:19:28;;;;;;;2.87;0.90;;;;;;;8.50;100.00;101421.88;5074290;28;20437;-70
2024/02/21 02:22:01;;;;;;;4.30;1.50;;;;;;;8.49;100.00;101427.53;5073841;28;20802;-70
2024/02/21 02:24:29;;;;;;;8.63;1.97;;;;;;;8.50;100.00;101424.59;5073604;28;20439;-70
2024/02/21 02:26:55;;;;;;;3.90;1.43;;;;;;;8.44;100.00;101416.72;5074431;28;20529;-70
2024/02/21 02:29:22;;;;;;;2.40;0.93;;;;;;;8.41;100.00;101417.25;5073867;28;20473;-71
2024/02/21 02:31:50;;;;;;;7.07;2.33;;;;;;;8.32;100.00;101409.66;5074076;28;20901;-71
2024/02/21 02:34:17;;;;;;;3.63;1.40;;;;;;;8.24;100.00;101409.34;5074098;28;20437;-71
2024/02/21 02:36:43;;;;;;;9.37;2.43;;;;;;;8.13;100.00;101405.78;5073626;28;20573;-71
2024/02/21 02:39:10;;;;;;;2.83;0.93;;;;;;;8.11;100.00;101399.88;5074302;28;20448;-71
2024/02/21 02:41:38;;;;;;;3.00;1.30;;;;;;;8.15;100.00;101400.16;5073595;28;20437;-70
2024/02/21 02:44:04;;;;;;;2.97;0.90;;;;;;;8.11;100.00;101391.78;5073525;28;20851;-71
2024/02/21 02:46:31;;;;;;;2.67;1.00;;;;;;;8.11;100.00;101397.16;5073602;28;20417;-70
2024/02/21 02:48:58;;;;;;;2.10;0.90;;;;;;;8.08;100.00;101382.31;5073508;28;20528;-71
2024/02/21 02:51:24;;;;;;;3.50;1.20;;;;;;;8.07;100.00;101385.28;5073252;28;20566;-71
2024/02/21 02:53:51;;;;;;;3.30;0.93;;;;;;;8.05;100.00;101388.22;5073632;28;20548;-71
2024/02/21 02:56:17;;;;;;;2.53;1.23;;;;;;;8.00;100.00;101382.00;5073799;28;20477;-71
2024/02/21 02:58:46;;;;;;;3.03;1.10;;;;;;;7.98;100.00;101376.06;5073447;28;20491;-71
2024/02/21 03:01:13;;;;;;;8.13;1.40;;;;;;;7.95;100.00;101374.69;5073118;28;21024;-72
2024/02/21 03:03:40;;;;;;;2.60;1.27;;;;;;;7.93;100.00;101368.78;5073399;28;20476;-71
2024/02/21 03:06:06;;;;;;;3.07;1.00;;;;;;;7.95;100.00;101365.78;5073429;28;20520;-71
2024/02/21 03:08:34;;;;;;;3.67;1.70;;;;;;;7.93;100.00;101363.38;5073359;28;20437;-71
2024/02/21 03:11:00;;;;;;;2.90;1.03;;;;;;;7.88;100.00;101360.66;5073393;28;20888;-70
2024/02/21 03:13:27;;;;;;;2.60;1.50;;;;;;;7.88;100.00;101362.53;5073400;28;20519;-70
2024/02/21 03:15:55;;;;;;;2.63;1.20;;;;;;;7.86;100.00;101357.41;5072921;28;20916;-71
2024/02/21 03:18:21;;;;;;;4.20;1.70;;;;;;;7.88;100.00;101354.44;5073388;28;20433;-71
2024/02/21 03:20:48;;;;;;;6.70;2.07;;;;;;;7.89;100.00;101347.97;5073321;28;20532;-71
2024/02/21 03:23:15;;;;;;;2.73;1.20;;;;;;;7.83;100.00;101352.53;5072914;28;20540;-71
2024/02/21 03:25:41;;;;;;;3.20;1.10;;;;;;;7.82;100.00;101346.31;5074766;28;20533;-71
2024/02/21 03:28:08;;;;;;;2.97;1.27;;;;;;;7.81;100.00;101354.69;5076957;28;20439;-70
2024/02/21 03:30:34;;;;;;;6.73;1.73;;;;;;;7.81;100.00;101349.28;5077291;28;20536;-70
2024/02/21 03:33:04;;;;;;;3.73;1.40;;;;;;;7.79;100.00;101337.94;5077053;28;20465;-70
2024/02/21 03:35:30;;;;;;;3.70;1.83;;;;;;;7.76;100.00;101336.59;5076763;28;20786;-70
2024/02/21 03:37:57;;;;;;;7.90;1.57;;;;;;;7.77;100.00;101334.72;5077246;28;20564;-71
2024/02/21 03:40:23;;;;;;;3.30;1.37;;;;;;;7.76;100.00;101323.13;5077037;28;20973;-71
2024/02/21 03:42:50;;;;;;;3.43;1.47;;;;;;;7.77;100.00;101323.94;5076607;28;21004;-71
2024/02/21 03:45:16;;;;;;;3.70;1.40;;;;;;;7.73;100.00;101318.25;5076747;28;20500;-71
2024/02/21 03:47:43;;;;;;;3.10;1.53;;;;;;;7.72;100.00;101323.91;5077113;28;20927;-71
2024/02/21 03:50:11;;;;;;;5.27;1.70;;;;;;;7.71;100.00;101320.41;5076451;28;20453;-71
2024/02/21 03:52:38;;;;;;;4.37;1.70;;;;;;;7.72;100.00;101322.03;5076802;28;20810;-72
2024/02/21 03:55:07;;;;;;;3.80;1.83;;;;;;;7.76;100.00;101320.41;5076615;28;20520;-71
2024/02/21 03:57:34;;;;;;;3.13;1.23;;;;;;;7.78;100.00;101320.16;5077038;28;20492;-70
2024/02/21 04:00:00;;;;;;;3.17;1.17;;;;;;;7.75;100.00;101316.09;5076583;28;20939;-69
2024/02/21 04:02:27;;;;;;;2.60;1.20;;;;;;;7.78;100.00;101310.16;5076264;28;20461;-69
2024/02/21 04:04:54;;;;;;;2.33;1.13;;;;;;;7.76;100.00;101306.94;5076530;28;20441;-72
2024/02/21 04:07:22;;;;;;;2.80;1.50;;;;;;;7.75;100.00;101297.22;5076168;28;20955;-71
2024/02/21 04:09:49;;;;;;;3.93;1.53;;;;;;;7.73;100.00;101293.97;5076517;28;20520;-71
2024/02/21 04:12:15;;;;;;;4.33;1.00;;;;;;;7.74;100.00;101295.59;5076409;28;20922;-71
2024/02/21 04:14:42;;;;;;;2.70;1.17;;;;;;;7.77;100.00;101291.56;5076020;28;20440;-71
2024/02/21 04:17:08;;;;;;;2.57;1.00;;;;;;;7.78;100.00;101285.91;5076532;28;20568;-71
2024/02/21 04:19:35;;;;;;;4.63;1.87;;;;;;;7.75;100.00;101286.44;5076204;28;20532;-71
2024/02/21 04:22:02;;;;;;;2.47;0.87;;;;;;;7.79;100.00;101268.66;5075772;28;21040;-71
2024/02/21 04:24:30;;;;;;;3.87;1.70;;;;;;;7.83;100.00;101260.81;5076991;28;20528;-71
2024/02/21 04:26:56;;;;;;;2.90;1.17;;;;;;;7.80;100.00;101264.88;5076216;28;20520;-71
2024/02/21 04:29:23;;;;;;;5.50;2.37;;;;;;;7.84;100.00;101252.50;5076068;28;20446;-71
2024/02/21 04:31:49;;;;;;;5.40;1.90;;;;;;;7.84;100.00;101241.69;5075995;28;20469;-71
2024/02/21 04:34:16;;;;;;;9.33;1.60;;;;;;;7.88;100.00;101241.16;5075967;28;20448;-71
2024/02/21 04:36:43;;;;;;;3.53;1.63;;;;;;;7.89;100.00;101230.13;5075409;28;20484;-71
2024/02/21 04:39:10;;;;;;;3.10;1.37;;;;;;;7.94;100.00;101235.50;5075906;28;20518;-72
2024/02/21 04:41:38;;;;;;;5.40;1.40;;;;;;;7.91;100.00;101229.84;5075534;28;20524;-71
2024/02/21 04:44:04;;;;;;;3.77;1.80;;;;;;;7.90;100.00;101228.22;5075417;28;20532;-71
2024/02/21 04:46:31;;;;;;;5.07;2.53;;;;;;;7.88;100.00;101220.41;5075749;28;20500;-72
2024/02/21 04:48:58;;;;;;;4.57;1.47;;;;;;;7.92;100.00;101228.75;5075621;28;20445;-71
2024/02/21 04:51:25;;;;;;;7.33;1.60;;;;;;;7.91;100.00;101219.84;5075625;28;20520;-72
2024/02/21 04:53:51;;;;;;;3.70;1.40;;;;;;;7.91;100.00;101219.03;5075284;28;20495;-71
2024/02/21 04:56:18;;;;;;;2.37;1.10;;;;;;;7.96;100.00;101219.06;5075491;28;20441;-71
2024/02/21 04:58:46;;;;;;;3.10;1.60;;;;;;;7.94;100.00;101229.31;5075449;28;20476;-71
2024/02/21 05:01:13;;;;;;;8.70;1.23;;;;;;;7.92;100.00;101231.44;5075470;28;20520;-72
2024/02/21 05:03:39;;;;;;;2.70;1.20;;;;;;;7.92;100.00;101223.34;5075191;28;20491;-71
2024/02/21 05:06:07;;;;;;;6.53;2.30;;;;;;;7.93;100.00;101219.59;5075108;28;20433;-72
2024/02/21 05:08:34;;;;;;;2.33;1.10;;;;;;;7.95;100.00;101217.44;5075747;28;20445;-71
2024/02/21 05:11:00;;;;;;;2.70;1.27;;;;;;;7.92;100.00;101215.25;5075402;28;20472;-71
2024/02/21 05:13:27;;;;;;;4.93;2.30;;;;;;;7.93;100.00;101208.81;5075282;28;20548;-71
2024/02/21 05:15:55;;;;;;;2.80;1.20;;;;;;;7.96;100.00;101216.34;5075167;28;20948;-71
2024/02/21 05:18:22;;;;;;;2.53;1.47;;;;;;;7.95;100.00;101212.84;5075477;28;20527;-72
2024/02/21 05:20:48;;;;;;;3.70;1.97;;;;;;;7.95;100.00;101214.75;5075096;28;20520;-71
2024/02/21 05:23:15;;;;;;;4.63;2.43;;;;;;;7.95;100.00;101217.44;5075000;28;20872;-72
2024/02/21 05:25:41;;;;;;;3.00;1.40;;;;;;;7.95;100.00;101209.34;5074604;28;20445;-72
2024/02/21 05:28:08;;;;;;;2.83;1.30;;;;;;;7.94;100.00;101213.13;5075330;28;20985;-72
2024/02/21 05:30:35;;;;;;;2.77;1.27;;;;;;;7.97;100.00;101223.34;5074718;28;20436;-72
2024/02/21 05:33:07;;;;;;;3.00;1.47;;;;;;;7.96;100.00;101217.16;5074791;28;20497;-71
2024/02/21 05:35:33;;;;;;;3.60;1.80;;;;;;;7.95;100.00;101215.53;5074911;28;20789;-71
2024/02/21 05:38:00;;;;;;;3.23;1.53;;;;;;;7.94;100.00;101208.53;5074404;28;20491;-71
2024/02/21 05:40:27;;;;;;;3.53;1.97;;;;;;;7.98;100.00;101204.22;5074397;28;20473;-71
2024/02/21 05:42:53;;;;;;;2.93;1.33;;;;;;;8.02;100.00;101212.59;5074324;28;20457;-71
2024/02/21 05:45:20;;;;;;;4.07;1.73;;;;;;;8.02;100.00;101201.81;5073904;28;20898;-71
2024/02/21 05:47:47;;;;;;;4.20;2.07;;;;;;;7.99;100.00;101205.84;5074035;28;20528;-71
2024/02/21 05:50:15;;;;;;;3.40;1.83;;;;;;;8.03;100.00;101200.72;5074160;28;20469;-71
2024/02/21 05:52:41;;;;;;;4.40;1.70;;;;;;;8.03;100.00;101195.34;5073846;28;20544;-72
2024/02/21 05:55:08;;;;;;;5.40;2.10;;;;;;;8.02;100.00;101196.41;5074570;28;20463;-73
2024/02/21 05:57:35;;;;;;;4.10;1.70;;;;;;;7.98;100.00;101189.94;5074263;28;20512;-72
2024/02/21 06:00:05;;;;;;;3.47;1.40;;;;;;;8.00;100.00;101202.06;5073981;28;20521;-72
2024/02/21 06:02:32;;;;;;;3.30;1.40;;;;;;;8.03;100.00;101189.94;5074046;28;20952;-72
2024/02/21 06:04:58;;;;;;;2.30;1.23;;;;;;;8.04;100.00;101186.97;5074034;28;20526;-72
2024/02/21 06:07:26;;;;;;;3.30;1.80;;;;;;;8.02;100.00;101182.94;5073973;28;20440;-72
2024/02/21 06:09:53;;;;;;;4.63;1.93;;;;;;;8.02;100.00;101180.22;5074343;28;20528;-72
2024/02/21 06:12:19;;;;;;;3.57;1.80;;;;;;;8.08;100.00;101179.94;5074141;28;20485;-72
2024/02/21 06:14:46;;;;;;;3.60;1.43;;;;;;;8.09;100.00;101181.56;5073901;28;20441;-72
2024/02/21 06:17:13;;;;;;;7.53;2.80;;;;;;;8.11;100.00;101183.19;5073909;28;20534;-72
2024/02/21 06:19:41;;;;;;;5.60;1.93;;;;;;;8.09;100.00;101169.97;5074332;28;20445;-72
2024/02/21 06:22:08;;;;;;;3.00;1.63;;;;;;;8.08;100.00;101176.44;5074217;28;20458;-72
2024/02/21 06:24:36;;;;;;;4.23;2.00;;;;;;;8.11;100.00;101173.22;5073827;28;20433;-72
2024/02/21 06:27:05;;;;;;;2.80;1.20;;;;;;;8.14;100.00;101180.75;5073517;28;20440;-72
2024/02/21 06:29:32;;;;;;;6.07;2.80;;;;;;;8.16;100.00;101180.50;5073852;28;20441;-72
2024/02/21 06:31:59;;;;;;;3.67;1.27;;;;;;;8.14;100.00;101179.94;5074049;28;20461;-72
2024/02/21 06:34:25;;;;;;;3.20;1.60;;;;;;;8.13;100.00;101172.94;5073947;28;20440;-73
2024/02/21 06:36:52;;;;;;;3.33;2.00;;;;;;;8.18;100.00;101179.13;5074027;28;20437;-72
2024/02/21 06:39:19;;;;;;;5.87;1.57;;;;;;;8.17;100.00;101191.00;5073347;28;20473;-70
2024/02/21 06:41:47;;;;;;;4.50;1.93;;;;;;;8.23;100.00;101192.63;5073965;28;20441;-70
2024/02/21 06:44:14;;;;;;;4.20;1.97;;;;;;;8.22;100.00;101198.31;5084665;22;20497;-68
2024/02/21 06:46:41;;;;;;;6.50;2.57;;;;;;;8.20;100.00;101189.69;5053721;28;20972;-69
2024/02/21 06:49:07;;;;;;;7.90;2.03;;;;;;;8.28;100.00;101192.66;5053548;28;20525;-69
2024/02/21 06:51:34;;;;;;;5.67;2.40;;;;;;;8.30;100.00;101193.16;5053049;28;20495;-68
2024/02/21 06:54:01;;;;;;;2.40;1.20;;;;;;;8.34;100.00;101191.56;5053474;28;20491;-69
2024/02/21 06:56:28;;;;;;;4.87;2.10;;;;;;;8.34;100.00;101191.56;5053817;28;20438;-69
2024/02/21 06:58:56;;;;;;;9.43;3.47;;;;;;;8.35;100.00;101187.75;5053208;28;20489;-69
2024/02/21 07:01:23;;;;;;;5.87;1.80;;;;;;;8.37;100.00;101189.41;5053536;28;20525;-69
2024/02/21 07:03:49;;;;;;;4.93;2.13;;;;;;;8.30;100.00;101185.06;5053350;28;20462;-69
2024/02/21 07:06:16;;;;;;;5.90;2.23;;;;;;;8.32;100.00;101188.34;5053472;28;20525;-69
2024/02/21 07:08:43;;;;;;;5.47;1.87;;;;;;;8.38;100.00;101188.34;5054195;28;20462;-68
2024/02/21 07:11:09;;;;;;;4.50;2.10;;;;;;;8.41;100.00;101179.69;5055202;28;20488;-68
2024/02/21 07:13:36;;;;;;;7.20;2.50;;;;;;;8.44;100.00;101184.56;5060203;28;20517;-69
2024/02/21 07:16:05;;;;;;;4.73;2.33;;;;;;;8.43;100.00;101181.06;5054762;28;20466;-68
2024/02/21 07:18:32;;;;;;;9.37;2.83;;;;;;;8.46;100.00;101187.81;5053233;28;20971;-68
2024/02/21 07:20:58;;;;;;;3.47;1.87;;;;;;;8.46;100.00;101177.00;5053509;28;20480;-68
2024/02/21 07:23:25;;;;;;;6.77;2.57;;;;;;;8.50;100.00;101172.66;5053304;28;20464;-69
2024/02/21 07:25:52;;;;;;;5.60;2.40;;;;;;;8.57;100.00;101179.41;5053241;28;20456;-68
2024/02/21 07:28:18;;;;;;;4.77;1.93;;;;;;;8.58;100.00;101181.00;5052962;28;20997;-68
2024/02/21 07:30:45;;;;;;;5.60;2.60;;;;;;;8.62;100.00;101180.47;5053003;28;20997;-69
2024/02/21 07:33:13;;;;;;;2.83;1.40;;;;;;;8.63;100.00;101188.28;5053321;28;20537;-68
2024/02/21 07:35:41;;;;;;;6.83;2.37;;;;;;;8.62;100.00;101191.28;5053230;28;20597;-69
2024/02/21 07:38:08;;;;;;;3.80;2.00;;;;;;;8.64;100.00;101191.84;5053058;28;20862;-69
2024/02/21 07:40:35;;;;;;;4.23;2.17;;;;;;;8.69;100.00;101195.31;5053057;28;20442;-69
2024/02/21 07:43:01;;;;;;;4.40;2.00;;;;;;;8.68;100.00;101188.31;5052652;28;20462;-68
2024/02/21 07:45:28;;;;;;;7.10;3.10;;;;;;;8.69;100.00;101178.31;5052925;28;20541;-68
2024/02/21 07:47:54;;;;;;;5.80;2.77;;;;;;;8.72;100.00;101175.03;5053017;28;20526;-68
2024/02/21 07:50:22;;;;;;;2.73;1.43;;;;;;;8.65;100.00;101188.03;5053304;28;20537;-68
2024/02/21 07:52:49;;;;;;;3.00;1.63;;;;;;;8.67;100.00;101189.38;5053046;28;20546;-68
2024/02/21 07:55:16;;;;;;;3.20;1.47;;;;;;;8.65;100.00;101199.66;5053275;28;20529;-68
2024/02/21 07:57:42;;;;;;;3.47;1.77;;;;;;;8.69;100.00;101186.41;5052717;28;20894;-67
2024/02/21 08:00:14;;;;;;;4.90;2.13;;;;;;;8.72;100.00;101181.28;5053151;28;20514;-67
2024/02/21 08:02:42;;;;;;;5.93;2.43;;;;;;;8.72;100.00;101186.69;5053004;28;20812;-68
2024/02/21 08:05:09;;;;;;;4.73;2.13;;;;;;;8.74;100.00;101189.91;5052907;28;20454;-68
2024/02/21 08:07:37;;;;;;;4.97;2.33;;;;;;;8.76;100.00;101176.94;5052828;28;20429;-67
2024/02/21 08:10:04;;;;;;;17.13;2.50;;;;;;;8.75;100.00;101186.13;5053099;28;21018;-67
2024/02/21 08:12:32;;;;;;;5.33;2.60;;;;;;;8.80;100.00;101178.00;5055276;28;20490;-67
2024/02/21 08:14:59;;;;;;;6.20;2.17;;;;;;;8.73;100.00;101182.91;5056360;28;20445;-68
2024/02/21 08:17:25;;;;;;;6.60;1.73;;;;;;;8.77;100.00;101175.88;5056537;28;20448;-67
2024/02/21 08:19:52;;;;;;;4.07;1.37;;;;;;;8.78;100.00;101182.88;5055784;28;20987;-67
2024/02/21 08:22:19;;;;;;;4.80;2.87;;;;;;;8.81;100.00;101174.22;5056037;28;20541;-67
2024/02/21 08:24:47;;;;;;;9.23;3.00;;;;;;;8.88;100.00;101173.13;5056042;28;20766;-67
2024/02/21 08:27:13;;;;;;;4.40;1.83;;;;;;;8.88;100.00;101178.53;5056067;28;20438;-68
2024/02/21 08:29:40;;;;;;;8.33;2.43;;;;;;;8.91;100.00;101168.00;5056055;28;20859;-67
2024/02/21 08:32:07;;;;;;;5.70;2.33;;;;;;;9.02;100.00;101174.16;5055909;28;20494;-68
2024/02/21 08:34:34;;;;;;;4.60;2.30;;;;;;;9.12;100.00;101178.69;5055985;28;20521;-68
2024/02/21 08:37:00;;;;;;;6.43;2.30;;;;;;;9.20;100.00;101178.94;5056248;28;20434;-68
2024/02/21 08:39:28;;;;;;;4.27;2.17;;;;;;;9.26;100.00;101175.16;5055778;28;20486;-68
2024/02/21 08:41:56;;;;;;;3.43;1.87;;;;;;;9.35;100.00;101173.47;5055609;28;20458;-67
2024/02/21 08:44:24;;;;;;;7.87;3.03;;;;;;;9.43;100.00;101173.97;5056106;28;20476;-68
2024/02/21 08:46:50;;;;;;;9.73;3.10;;;;;;;9.46;100.00;101173.41;5056368;28;20426;-67
2024/02/21 08:49:17;;;;;;;7.47;2.77;;;;;;;9.43;100.00;101174.81;5055750;28;20438;-69
2024/02/21 08:51:44;;;;;;;4.97;2.80;;;;;;;9.44;100.00;101176.41;5056028;28;20471;-69
2024/02/21 08:54:10;;;;;;;20.00;3.90;;;;;;;9.46;100.00;101176.13;5056070;28;20438;-69
2024/02/21 08:56:37;;;;;;;5.00;2.63;;;;;;;9.48;100.00;101182.06;5055666;28;20485;-69
2024/02/21 08:59:05;;;;;;;5.13;2.33;;;;;;;9.45;100.00;101177.22;5055180;28;21085;-69
2024/02/21 09:01:32;;;;;;;7.90;3.00;;;;;;;9.43;100.00;101179.38;5055110;28;20474;-69
2024/02/21 09:03:59;;;;;;;7.33;3.07;;;;;;;9.51;100.00;101167.97;5055702;28;20528;-69
2024/02/21 09:06:27;;;;;;;8.43;3.57;;;;;;;9.55;100.00;101180.66;5055393;28;20434;-68
2024/02/21 09:08:54;;;;;;;12.70;3.23;;;;;;;9.56;100.00;101185.00;5055087;28;20492;-69
2024/02/21 09:11:20;;;;;;;5.23;2.40;;;;;;;9.58;100.00;101182.81;5055989;28;21009;-69
2024/02/21 09:13:47;;;;;;;6.90;3.07;;;;;;;9.63;100.00;101179.28;5055718;28;20902;-71
2024/02/21 09:16:15;;;;;;;11.90;4.17;;;;;;;9.66;100.00;101169.81;5055144;28;21029;-69
2024/02/21 09:18:42;;;;;;;9.10;3.47;;;;;;;9.69;100.00;101171.91;5055072;28;20821;-69
2024/02/21 09:21:08;;;;;;;6.07;2.67;;;;;;;9.59;100.00;101170.09;5055040;28;20453;-68
2024/02/21 09:23:35;;;;;;;8.33;3.80;;;;;;;9.67;99.54;101158.69;5055043;28;20890;-69
2024/02/21 09:26:04;;;;;;;6.13;3.10;;;;;;;9.70;100.00;101162.75;5055053;28;20576;-68
2024/02/21 09:28:30;;;;;;;9.93;4.40;;;;;;;9.82;99.60;101165.88;5054743;28;20922;-68
2024/02/21 09:30:57;;;;;;;10.50;4.03;;;;;;;9.83;99.70;101162.91;5055231;28;20439;-68
2024/02/21 09:33:25;;;;;;;6.17;3.30;;;;;;;9.93;99.38;101161.22;5054829;28;20547;-68
2024/02/21 09:35:52;;;;;;;12.70;4.40;;;;;;;9.97;100.00;101156.88;5054913;28;20960;-68
2024/02/21 09:38:19;;;;;;;6.00;2.87;;;;;;;10.07;98.44;101157.56;5054737;28;20496;-69
2024/02/21 09:40:47;;;;;;;7.53;3.43;;;;;;;10.09;98.36;101157.28;5054778;28;20525;-69
2024/02/21 09:43:20;;;;;;;6.97;2.27;;;;;;;10.04;98.16;101151.91;5054963;28;20462;-68
2024/02/21 09:45:48;;;;;;;7.30;3.00;;;;;;;10.07;96.85;101149.47;5054471;28;20831;-68
2024/02/21 09:48:32;;;;;;;7.53;3.13;;;;;;;10.06;97.36;101155.97;5054430;28;20936;-68
2024/02/21 09:51:00;;;;;;;8.80;3.37;;;;;;;10.18;96.18;101152.91;5054841;28;20792;-68
2024/02/21 09:53:28;;;;;;;5.63;2.47;;;;;;;10.14;96.83;101146.44;5054924;28;20461;-69
2024/02/21 09:55:55;;;;;;;6.67;3.93;;;;;;;10.15;96.69;101156.16;5054913;28;20466;-68
2024/02/21 09:58:26;;;;;;;8.07;3.53;;;;;;;10.14;95.94;101156.44;5054768;28;20486;-69
2024/02/21 10:00:52;;;;;;;7.27;3.50;;;;;;;10.17;96.19;101155.88;5054222;28;20442;-68
2024/02/21 10:03:19;;;;;;;6.80;3.17;;;;;;;10.14;95.72;101162.69;5054105;28;20470;-68
2024/02/21 10:05:50;;;;;;;11.77;3.90;;;;;;;10.15;95.68;101158.88;5053987;28;20442;-68
2024/02/21 10:08:17;;;;;;;7.57;2.90;;;;;;;10.16;95.78;101157.78;5054714;28;20418;-68
2024/02/21 10:10:44;;;;;;;9.40;3.90;;;;;;;10.20;96.02;101152.59;5054585;28;20500;-68
2024/02/21 10:13:11;;;;;;;6.47;3.43;;;;;;;10.28;95.89;101157.44;5054075;28;20538;-68
2024/02/21 10:15:38;;;;;;;6.17;3.33;;;;;;;10.33;94.99;101146.56;5054555;28;20438;-68
2024/02/21 10:18:06;;;;;;;9.40;3.23;;;;;;;10.43;93.99;101149.16;5054079;28;20434;-69
2024/02/21 10:20:33;;;;;;;6.63;3.97;;;;;;;10.48;94.72;101151.00;5054242;28;20809;-69
2024/02/21 10:23:08;;;;;;;5.33;3.33;;;;;;;10.51;94.23;101151.25;5054032;28;20462;-68
2024/02/21 10:25:35;;;;;;;10.60;3.33;;;;;;;10.63;93.25;101153.59;5054121;28;20422;-69
2024/02/21 10:28:02;;;;;;;3.30;1.80;;;;;;;10.63;93.90;101159.00;5054178;28;20528;-68
2024/02/21 10:30:29;;;;;;;5.63;2.90;;;;;;;10.62;93.77;101162.78;5053887;28;20458;-68
2024/02/21 10:32:55;;;;;;;6.20;2.63;;;;;;;10.54;94.55;101168.84;5053360;28;20462;-68
2024/02/21 10:35:29;;;;;;;5.00;2.47;;;;;;;10.62;92.86;101168.19;5053527;28;20520;-69
2024/02/21 10:37:56;;;;;;;6.87;2.90;;;;;;;10.53;93.95;101161.78;5053710;28;20441;-68
2024/02/21 10:40:27;;;;;;;5.10;2.70;;;;;;;10.51;94.79;101161.28;5054469;28;20444;-68
2024/02/21 10:42:59;;;;;;;6.30;2.60;;;;;;;10.55;94.72;101154.19;5053670;28;20536;-69
2024/02/21 10:45:32;;;;;;;6.27;2.63;;;;;;;10.54;95.57;101160.72;5053476;28;20448;-69
2024/02/21 10:48:07;;;;;;;5.57;2.87;;;;;;;10.45;97.59;101163.25;5053665;28;20427;-69
2024/02/21 10:50:46;;;;;;;5.80;2.43;;;;;;;10.27;98.75;101151.22;5054038;28;20516;-69
2024/02/21 10:53:25;;;;;;;4.80;2.40;;;;;;;10.24;99.60;101146.38;5053818;28;20486;-68
2024/02/21 10:56:02;;;;;;;5.53;2.63;;;;;;;10.25;100.00;101145.28;5053614;28;20427;-69
2024/02/21 10:58:30;;;;;;;5.80;2.53;;;;;;;10.31;99.60;101152.28;5053742;28;20476;-68
2024/02/21 11:00:57;;;;;;;6.23;3.00;;;;;;;10.37;99.29;101135.97;5053295;28;20445;-69
2024/02/21 11:03:23;;;;;;;3.97;2.50;;;;;;;10.44;98.90;101122.88;5053086;28;20553;-69
2024/02/21 11:05:52;;;;;;;5.30;2.57;;;;;;;10.59;98.73;101120.03;5053416;28;20806;-69
2024/02/21 11:08:17;;;;;;;7.30;2.90;;;;;;;10.78;98.11;101107.34;5053081;28;20513;-69
2024/02/21 11:10:47;;;;;;;5.80;2.87;;;;;;;10.97;95.34;101107.38;5053063;28;20545;-69
2024/02/21 11:13:15;;;;;;;4.37;2.60;;;;;;;11.10;95.90;101103.13;5053541;28;20234;-69
2024/02/21 11:15:42;;;;;;;5.23;2.80;;;;;;;11.28;94.73;101094.22;5053514;28;20524;-69
2024/02/21 11:18:08;;;;;;;5.40;2.57;;;;;;;11.41;93.19;101083.72;5053233;28;20950;-68
2024/02/21 11:20:36;;;;;;;4.50;2.63;;;;;;;11.55;92.64;101090.03;5053323;28;20479;-68
2024/02/21 11:23:03;;;;;;;4.83;2.50;;;;;;;11.72;91.46;101090.28;5053133;28;21037;-69
2024/02/21 11:25:30;;;;;;;4.80;2.50;;;;;;;11.78;89.02;101080.19;5053332;28;20470;-68
2024/02/21 11:28:01;;;;;;;5.80;2.50;;;;;;;11.79;90.45;101074.44;5053547;28;20452;-68
2024/02/21 11:30:32;;;;;;;5.30;2.40;;;;;;;11.86;87.27;101072.19;5053217;28;20477;-69